Time;durP1;ratioP1;P1;durP2;ratioP2;P2;SDS_P1;SDS_P2;PMS_P1;PMS_P2;Temp;Humidity;BMP_temperature;BMP_pressure;BME280_temperature;BME280_humidity;BME280_pressure;Samples;Min_cycle;Max_cycle;Signal;HPM_P1;HPM_P2
2022/03/24 00:01:20;;;;;;;3.85;3.25;;;20.10;52.90;;;;;;5013813;28;20089;-68
2022/03/24 00:03:46;;;;;;;3.15;2.88;;;20.10;53.00;;;;;;5022456;28;20434;-68
2022/03/24 00:06:13;;;;;;;3.03;2.80;;;20.10;53.00;;;;;;5033515;28;20018;-69
2022/03/24 00:08:38;;;;;;;3.40;2.80;;;20.10;53.10;;;;;;5033454;28;20104;-69
2022/03/24 00:11:04;;;;;;;2.90;2.70;;;20.10;53.10;;;;;;5030080;28;20416;-69
2022/03/24 00:13:29;;;;;;;3.58;3.05;;;20.10;53.10;;;;;;5014497;28;20034;-69
2022/03/24 00:15:55;;;;;;;3.33;2.80;;;20.10;53.20;;;;;;5014923;28;20104;-69
2022/03/24 00:18:21;;;;;;;2.65;2.45;;;20.10;53.20;;;;;;5013318;28;20061;-69
2022/03/24 00:20:46;;;;;;;3.30;2.90;;;20.00;53.20;;;;;;5014593;28;20050;-69
2022/03/24 00:23:12;;;;;;;3.70;2.78;;;20.00;53.30;;;;;;5014794;28;20087;-69
2022/03/24 00:25:38;;;;;;;2.70;2.50;;;20.00;53.30;;;;;;5014576;28;20033;-69
2022/03/24 00:28:06;;;;;;;4.53;3.05;;;20.00;53.30;;;;;;5011998;28;20025;-69
2022/03/24 00:30:31;;;;;;;3.20;2.90;;;20.00;53.40;;;;;;5014447;28;20010;-69
2022/03/24 00:32:57;;;;;;;3.25;2.88;;;20.00;53.50;;;;;;5013431;28;20374;-69
2022/03/24 00:35:24;;;;;;;3.30;3.00;;;20.00;53.50;;;;;;5013140;28;20018;-69
2022/03/24 00:37:50;;;;;;;3.35;3.00;;;20.00;53.50;;;;;;5014440;28;20025;-69
2022/03/24 00:40:17;;;;;;;3.60;2.80;;;20.00;53.60;;;;;;5014353;28;20499;-69
2022/03/24 00:42:43;;;;;;;3.85;2.72;;;20.00;53.60;;;;;;5012536;28;20042;-69
2022/03/24 00:45:12;;;;;;;3.38;2.90;;;20.00;53.70;;;;;;5013155;28;20037;-69
2022/03/24 00:47:39;;;;;;;3.30;3.00;;;20.00;53.70;;;;;;5013015;28;20014;-69
2022/03/24 00:50:05;;;;;;;3.70;2.92;;;20.00;53.70;;;;;;5012984;28;20401;-69
2022/03/24 00:52:30;;;;;;;3.10;2.80;;;20.00;53.70;;;;;;5013964;28;20412;-69
2022/03/24 00:54:56;;;;;;;2.97;2.67;;;20.00;53.80;;;;;;5014038;28;20029;-69
2022/03/24 00:57:22;;;;;;;3.17;2.78;;;20.00;53.80;;;;;;5013849;28;20033;-69
2022/03/24 00:59:48;;;;;;;4.25;2.75;;;20.00;54.00;;;;;;5012816;28;20484;-69
2022/03/24 01:02:14;;;;;;;3.38;3.08;;;20.00;54.00;;;;;;5013756;28;20022;-69
2022/03/24 01:04:41;;;;;;;3.97;2.85;;;20.00;54.00;;;;;;5028942;28;20022;-69
2022/03/24 01:07:07;;;;;;;3.25;2.95;;;19.90;54.00;;;;;;5032354;28;20024;-69
2022/03/24 01:09:32;;;;;;;3.28;2.97;;;19.90;54.00;;;;;;5033587;28;20030;-69
2022/03/24 01:11:58;;;;;;;3.42;2.70;;;20.00;54.10;;;;;;5021487;28;20056;-69
2022/03/24 01:14:25;;;;;;;2.95;2.60;;;20.00;54.20;;;;;;5013462;28;20030;-69
2022/03/24 01:16:51;;;;;;;3.45;3.05;;;19.90;54.20;;;;;;5012651;28;20026;-69
2022/03/24 01:19:17;;;;;;;3.40;3.00;;;20.00;54.20;;;;;;5013593;28;20022;-69
2022/03/24 01:21:43;;;;;;;3.08;2.72;;;19.90;54.20;;;;;;5013469;28;20404;-69
2022/03/24 01:24:08;;;;;;;3.45;2.90;;;20.00;54.30;;;;;;5013488;28;20633;-69
2022/03/24 01:26:35;;;;;;;3.45;2.65;;;19.90;54.30;;;;;;5012012;28;20025;-69
2022/03/24 01:29:01;;;;;;;3.00;2.50;;;19.90;54.40;;;;;;5012303;28;20561;-69
2022/03/24 01:31:26;;;;;;;3.15;2.70;;;19.90;54.40;;;;;;5013307;28;20141;-69
2022/03/24 01:33:52;;;;;;;3.30;3.00;;;19.90;54.40;;;;;;5013570;28;20042;-69
2022/03/24 01:36:18;;;;;;;3.85;3.17;;;19.90;54.50;;;;;;5013023;28;20489;-69
2022/03/24 01:38:44;;;;;;;3.20;2.90;;;20.00;54.60;;;;;;5012928;28;20129;-69
2022/03/24 01:41:10;;;;;;;3.10;2.80;;;19.90;54.50;;;;;;5011663;28;20018;-69
2022/03/24 01:43:35;;;;;;;4.57;2.95;;;19.90;54.50;;;;;;5013121;28;20236;-69
2022/03/24 01:46:01;;;;;;;2.88;2.65;;;19.90;54.60;;;;;;5012154;28;20024;-69
2022/03/24 01:48:27;;;;;;;5.38;3.30;;;19.90;54.60;;;;;;5011726;28;20041;-69
2022/03/24 01:50:53;;;;;;;3.25;2.53;;;19.90;54.70;;;;;;5013304;28;20092;-69
2022/03/24 01:53:18;;;;;;;3.30;3.00;;;19.90;54.70;;;;;;5011991;28;20064;-69
2022/03/24 01:55:44;;;;;;;4.53;2.80;;;19.90;54.80;;;;;;5011689;28;20033;-69
2022/03/24 01:58:11;;;;;;;3.05;2.67;;;19.90;54.80;;;;;;5011552;28;20033;-69
2022/03/24 02:00:37;;;;;;;5.57;3.10;;;19.90;54.90;;;;;;5011805;28;20419;-69
2022/03/24 02:03:04;;;;;;;3.65;3.00;;;19.90;54.90;;;;;;5013323;28;20026;-69
2022/03/24 02:05:34;;;;;;;2.97;2.67;;;19.90;54.90;;;;;;5031392;28;20028;-69
2022/03/24 02:08:03;;;;;;;3.20;2.90;;;19.90;55.00;;;;;;5031434;28;20116;-69
2022/03/24 02:10:33;;;;;;;3.10;2.80;;;19.90;55.00;;;;;;5031108;28;20105;-69
2022/03/24 02:12:58;;;;;;;4.28;3.15;;;19.90;55.00;;;;;;5011612;28;20022;-69
2022/03/24 02:15:25;;;;;;;3.85;2.53;;;19.90;56.10;;;;;;5012779;28;20018;-69
2022/03/24 02:17:52;;;;;;;3.42;2.90;;;19.80;55.00;;;;;;5011555;28;20022;-69
2022/03/24 02:20:19;;;;;;;3.22;2.70;;;19.90;55.10;;;;;;5012686;28;20022;-69
2022/03/24 02:22:46;;;;;;;3.17;2.88;;;19.90;55.10;;;;;;5012593;28;20037;-69
2022/03/24 02:25:11;;;;;;;3.15;2.85;;;19.90;55.20;;;;;;5012360;28;20018;-69
2022/03/24 02:27:38;;;;;;;4.68;2.85;;;19.80;55.10;;;;;;5012621;28;20164;-69
2022/03/24 02:30:05;;;;;;;3.25;2.95;;;19.80;55.10;;;;;;5011399;28;20037;-69
2022/03/24 02:32:30;;;;;;;3.97;3.05;;;19.80;55.30;;;;;;5012439;28;20036;-69
2022/03/24 02:34:56;;;;;;;3.33;2.72;;;19.80;55.30;;;;;;5011407;28;20026;-69
2022/03/24 02:37:23;;;;;;;3.97;3.35;;;19.80;55.30;;;;;;5012584;28;20040;-69
2022/03/24 02:39:53;;;;;;;3.30;2.85;;;19.80;55.40;;;;;;5010937;28;20073;-69
2022/03/24 02:42:21;;;;;;;3.28;3.08;;;19.80;55.40;;;;;;5012100;28;20042;-69
2022/03/24 02:44:53;;;;;;;3.78;2.90;;;19.80;55.40;;;;;;5011210;28;20025;-69
2022/03/24 02:47:18;;;;;;;3.83;3.08;;;19.80;55.40;;;;;;5012329;28;20030;-69
2022/03/24 02:49:47;;;;;;;3.25;2.95;;;19.80;55.40;;;;;;5011289;28;20030;-69
2022/03/24 02:52:13;;;;;;;3.35;2.97;;;19.80;55.40;;;;;;5016255;28;20472;-69
2022/03/24 02:54:39;;;;;;;3.58;3.00;;;19.80;55.40;;;;;;5014820;28;20068;-69
2022/03/24 02:57:05;;;;;;;3.08;2.80;;;19.80;55.40;;;;;;5016140;28;20050;-69
2022/03/24 02:59:31;;;;;;;3.25;2.95;;;19.80;55.40;;;;;;5016021;28;20101;-69
2022/03/24 03:01:59;;;;;;;4.25;3.22;;;19.80;55.40;;;;;;5015204;28;20030;-69
2022/03/24 03:04:25;;;;;;;3.95;3.10;;;19.80;55.40;;;;;;5027746;28;20033;-69
2022/03/24 03:06:52;;;;;;;3.03;2.72;;;19.80;55.50;;;;;;5035519;28;20024;-69
2022/03/24 03:09:18;;;;;;;4.05;2.95;;;19.80;55.50;;;;;;5035814;28;20101;-69
2022/03/24 03:11:45;;;;;;;3.10;2.80;;;19.80;55.50;;;;;;5025711;28;20061;-69
2022/03/24 03:14:11;;;;;;;4.85;3.33;;;19.80;55.50;;;;;;5016009;28;20029;-69
2022/03/24 03:16:37;;;;;;;2.97;2.78;;;19.80;55.60;;;;;;5014676;28;20083;-69
2022/03/24 03:19:03;;;;;;;3.17;2.88;;;19.80;55.60;;;;;;5014541;28;20022;-69
2022/03/24 03:21:29;;;;;;;3.10;2.70;;;19.70;55.60;;;;;;5014202;28;20088;-69
2022/03/24 03:23:55;;;;;;;3.10;2.80;;;19.70;55.60;;;;;;5015895;28;20511;-69
2022/03/24 03:26:22;;;;;;;2.97;2.78;;;19.70;55.60;;;;;;5014489;28;20548;-69
2022/03/24 03:28:47;;;;;;;3.85;2.78;;;19.70;55.60;;;;;;5015575;28;20401;-69
2022/03/24 03:31:14;;;;;;;4.93;3.15;;;19.70;55.70;;;;;;5014469;28;20036;-69
2022/03/24 03:33:39;;;;;;;3.72;2.90;;;19.70;55.70;;;;;;5015566;28;20052;-69
2022/03/24 03:36:05;;;;;;;3.88;2.70;;;19.70;55.70;;;;;;5014146;28;20556;-69
2022/03/24 03:38:32;;;;;;;4.13;3.40;;;19.70;55.70;;;;;;5014446;28;20117;-69
2022/03/24 03:40:59;;;;;;;3.38;3.00;;;19.70;55.80;;;;;;5014377;28;20104;-69
2022/03/24 03:43:26;;;;;;;4.18;3.00;;;19.70;55.80;;;;;;5015237;28;20124;-69
2022/03/24 03:45:51;;;;;;;4.35;3.00;;;19.70;55.80;;;;;;5015405;28;20105;-69
2022/03/24 03:48:17;;;;;;;5.03;3.10;;;19.70;55.90;;;;;;5014175;28;20113;-69
2022/03/24 03:50:43;;;;;;;4.93;3.15;;;19.70;55.80;;;;;;5013724;28;20026;-69
2022/03/24 03:53:09;;;;;;;3.15;2.80;;;19.70;55.90;;;;;;5014124;28;20085;-69
2022/03/24 03:55:40;;;;;;;4.10;2.95;;;19.70;55.90;;;;;;5025090;28;20113;-69
2022/03/24 03:58:11;;;;;;;8.10;3.60;;;19.70;55.90;;;;;;5047584;28;20455;-68
2022/03/24 04:03:20;;;;;;;10.00;3.83;;;19.70;56.10;;;;;;5033332;28;20060;-69
2022/03/24 04:05:46;;;;;;;4.57;3.05;;;19.70;56.10;;;;;;5032768;28;20053;-69
2022/03/24 04:08:12;;;;;;;4.13;3.20;;;19.70;56.10;;;;;;5033170;28;20208;-69
2022/03/24 04:10:38;;;;;;;4.13;3.10;;;19.70;56.10;;;;;;5048127;28;20024;-69
2022/03/24 04:13:06;;;;;;;3.00;2.70;;;19.70;56.10;;;;;;5064936;28;20495;-69
2022/03/24 04:15:33;;;;;;;5.43;3.05;;;19.70;56.20;;;;;;5031986;28;20480;-68
2022/03/24 04:18:01;;;;;;;5.22;3.28;;;19.70;56.20;;;;;;5034518;28;20018;-68
2022/03/24 04:20:26;;;;;;;4.32;2.75;;;19.70;56.20;;;;;;5033339;28;20048;-68
2022/03/24 04:22:52;;;;;;;3.65;3.20;;;19.70;56.20;;;;;;5033849;28;20472;-68
2022/03/24 04:25:20;;;;;;;4.10;3.17;;;19.70;56.20;;;;;;5032553;28;20475;-68
2022/03/24 04:27:46;;;;;;;4.72;3.00;;;19.70;56.20;;;;;;5065998;28;20021;-69
2022/03/24 04:30:12;;;;;;;4.72;2.92;;;19.70;56.20;;;;;;5066365;28;20029;-69
2022/03/24 04:32:38;;;;;;;6.18;3.30;;;19.70;56.30;;;;;;5033483;28;20018;-68
2022/03/24 04:35:05;;;;;;;5.10;3.22;;;19.70;56.30;;;;;;5032850;28;20052;-68
2022/03/24 04:37:31;;;;;;;3.53;3.08;;;19.70;56.30;;;;;;5034232;28;20128;-68
2022/03/24 04:39:57;;;;;;;4.70;3.10;;;19.60;56.30;;;;;;5033023;28;20029;-68
2022/03/24 04:42:22;;;;;;;5.03;3.40;;;19.70;56.30;;;;;;5033862;28;20080;-68
2022/03/24 04:44:48;;;;;;;9.25;3.10;;;19.70;56.40;;;;;;5033868;28;20026;-68
2022/03/24 04:47:15;;;;;;;4.07;3.35;;;19.60;56.30;;;;;;5034080;28;20022;-68
2022/03/24 04:49:41;;;;;;;4.82;3.35;;;19.60;56.40;;;;;;5032307;28;20030;-68
2022/03/24 04:52:07;;;;;;;3.83;2.95;;;19.60;56.40;;;;;;5031980;28;20022;-68
2022/03/24 04:54:33;;;;;;;3.40;3.10;;;19.60;56.40;;;;;;5033540;28;20104;-68
2022/03/24 04:56:59;;;;;;;5.25;2.70;;;19.60;56.40;;;;;;5033832;28;20025;-68
2022/03/24 04:59:25;;;;;;;4.65;3.30;;;19.60;56.40;;;;;;5032611;28;20033;-69
2022/03/24 05:01:51;;;;;;;5.10;3.60;;;19.60;56.40;;;;;;5032356;28;20492;-69
2022/03/24 05:04:17;;;;;;;3.92;3.15;;;19.60;56.40;;;;;;5021739;28;20018;-69
2022/03/24 05:06:42;;;;;;;5.13;3.30;;;19.60;57.50;;;;;;5013808;28;20021;-69
2022/03/24 05:09:08;;;;;;;3.83;3.25;;;19.60;56.60;;;;;;4996340;28;20408;-69
2022/03/24 05:11:34;;;;;;;3.80;3.22;;;19.60;56.50;;;;;;5012441;28;20519;-69
2022/03/24 05:14:01;;;;;;;5.25;3.40;;;19.60;56.50;;;;;;5011892;28;20789;-69
2022/03/24 05:16:28;;;;;;;5.45;3.45;;;19.60;56.50;;;;;;5012648;28;20373;-69
2022/03/24 05:18:54;;;;;;;3.45;3.10;;;19.60;56.60;;;;;;5013265;28;20033;-69
2022/03/24 05:21:19;;;;;;;4.40;3.13;;;19.60;56.60;;;;;;5012313;28;20022;-69
2022/03/24 05:23:45;;;;;;;5.43;3.20;;;19.60;56.60;;;;;;5013536;28;20056;-69
2022/03/24 05:26:10;;;;;;;4.50;3.13;;;19.60;56.60;;;;;;5013536;28;20444;-69
2022/03/24 05:28:36;;;;;;;4.40;3.20;;;19.60;56.60;;;;;;5013595;28;20037;-69
2022/03/24 05:31:02;;;;;;;3.90;2.78;;;19.60;56.60;;;;;;5013516;28;20044;-69
2022/03/24 05:33:27;;;;;;;5.95;3.25;;;19.60;56.70;;;;;;5013316;28;20096;-69
2022/03/24 05:35:53;;;;;;;5.57;3.00;;;19.60;56.70;;;;;;5013318;28;20080;-69
2022/03/24 05:38:19;;;;;;;3.35;3.05;;;19.60;56.70;;;;;;5012202;28;20030;-68
2022/03/24 05:40:44;;;;;;;3.20;2.88;;;19.60;56.70;;;;;;5013165;28;20026;-68
2022/03/24 05:43:10;;;;;;;5.78;3.35;;;19.60;56.70;;;;;;5013086;28;20054;-68
2022/03/24 05:45:36;;;;;;;3.88;2.90;;;19.50;57.60;;;;;;5012215;28;20030;-68
2022/03/24 05:48:02;;;;;;;4.88;3.38;;;19.50;56.70;;;;;;5012914;28;20041;-68
2022/03/24 05:50:29;;;;;;;3.60;3.08;;;19.50;56.70;;;;;;5013217;28;20025;-68
2022/03/24 05:52:55;;;;;;;4.95;2.60;;;19.50;56.70;;;;;;5012999;28;20076;-68
2022/03/24 05:55:23;;;;;;;4.45;3.05;;;19.50;56.80;;;;;;5018381;28;20021;-68
2022/03/24 05:57:49;;;;;;;3.47;3.17;;;19.50;56.80;;;;;;5031422;28;20575;-68
2022/03/24 06:00:15;;;;;;;6.00;3.35;;;19.50;56.80;;;;;;5032552;28;20071;-68
2022/03/24 06:02:41;;;;;;;2.70;2.47;;;19.50;56.80;;;;;;5031223;28;20040;-68
2022/03/24 06:05:11;;;;;;;4.05;3.33;;;19.50;56.80;;;;;;5013014;28;20026;-68
2022/03/24 06:07:37;;;;;;;3.20;2.75;;;19.50;56.80;;;;;;5012796;28;20037;-68
2022/03/24 06:10:03;;;;;;;6.03;3.38;;;19.50;56.80;;;;;;5011671;28;20025;-68
2022/03/24 06:12:28;;;;;;;4.18;3.08;;;19.50;56.80;;;;;;5012718;28;20049;-68
2022/03/24 06:14:54;;;;;;;3.38;2.80;;;19.50;56.90;;;;;;5012572;28;20540;-68
2022/03/24 06:17:20;;;;;;;3.17;2.65;;;19.50;56.90;;;;;;5012601;28;20030;-68
2022/03/24 06:19:47;;;;;;;4.25;3.35;;;19.50;56.90;;;;;;5023363;28;20030;-68
2022/03/24 06:22:13;;;;;;;4.75;3.22;;;19.50;56.90;;;;;;5046112;28;20052;-68
2022/03/24 06:24:39;;;;;;;3.28;2.88;;;19.50;56.90;;;;;;5032344;28;20447;-68
2022/03/24 06:27:05;;;;;;;6.15;3.45;;;19.40;56.90;;;;;;5050814;28;20029;-68
2022/03/24 06:29:31;;;;;;;3.65;3.00;;;19.50;57.00;;;;;;5014889;28;20072;-68
2022/03/24 06:31:56;;;;;;;4.25;3.30;;;19.50;57.00;;;;;;5044889;28;20061;-68
2022/03/24 06:34:22;;;;;;;4.10;3.17;;;19.40;57.00;;;;;;5018841;28;20485;-68
2022/03/24 06:36:48;;;;;;;3.33;3.03;;;19.40;57.00;;;;;;5050152;28;20021;-68
2022/03/24 06:39:14;;;;;;;3.92;3.00;;;19.40;57.00;;;;;;5052673;28;20025;-69
2022/03/24 06:41:39;;;;;;;3.67;3.30;;;19.40;57.00;;;;;;5051214;28;20057;-68
2022/03/24 06:44:06;;;;;;;4.18;3.38;;;19.40;57.00;;;;;;5052498;28;20032;-69
2022/03/24 06:46:32;;;;;;;3.75;3.10;;;19.40;57.00;;;;;;5030342;28;20471;-69
2022/03/24 06:48:58;;;;;;;4.10;3.47;;;19.40;57.00;;;;;;5030935;28;20429;-69
2022/03/24 06:51:23;;;;;;;3.55;3.25;;;19.50;57.00;;;;;;5030975;28;20057;-69
2022/03/24 06:53:49;;;;;;;3.50;3.20;;;19.40;56.90;;;;;;5030903;28;20029;-69
2022/03/24 06:56:15;;;;;;;3.65;3.35;;;19.40;56.90;;;;;;5030690;28;20041;-69
2022/03/24 06:58:43;;;;;;;3.72;3.30;;;19.40;57.80;;;;;;5030630;28;20432;-69
2022/03/24 07:01:09;;;;;;;4.68;3.53;;;19.40;56.70;;;;;;5032020;28;20053;-67
2022/03/24 07:03:34;;;;;;;7.65;3.53;;;19.40;56.70;;;;;;5024964;28;20014;-67
2022/03/24 07:06:01;;;;;;;6.05;3.80;;;19.40;56.70;;;;;;5013080;28;20504;-67
2022/03/24 07:08:27;;;;;;;4.88;3.90;;;19.40;56.60;;;;;;5030665;28;20040;-67
2022/03/24 07:10:53;;;;;;;9.43;3.90;;;19.40;56.60;;;;;;5028146;28;20025;-67
2022/03/24 07:13:19;;;;;;;6.90;3.90;;;19.40;56.60;;;;;;5030666;28;20031;-68
2022/03/24 07:15:45;;;;;;;8.88;3.75;;;19.40;56.60;;;;;;5030964;28;20037;-68
2022/03/24 07:18:10;;;;;;;7.45;3.50;;;19.40;56.60;;;;;;5032329;28;20482;-68
2022/03/24 07:20:37;;;;;;;5.45;3.90;;;19.40;56.50;;;;;;5030848;28;20534;-68
2022/03/24 07:23:03;;;;;;;12.05;4.95;;;19.40;56.50;;;;;;5031227;28;20036;-69
2022/03/24 07:25:32;;;;;;;8.07;4.63;;;19.30;56.40;;;;;;5031130;28;20030;-69
2022/03/24 07:27:58;;;;;;;7.68;4.60;;;19.30;56.30;;;;;;5030926;28;20026;-67
2022/03/24 07:30:23;;;;;;;7.50;4.90;;;19.30;56.30;;;;;;5032390;28;20033;-68
2022/03/24 07:32:49;;;;;;;8.25;4.85;;;19.30;57.20;;;;;;5032109;28;20499;-68
2022/03/24 07:35:15;;;;;;;11.10;5.80;;;19.30;56.20;;;;;;5030856;28;20088;-67
2022/03/24 07:37:42;;;;;;;14.05;6.00;;;19.30;56.10;;;;;;5034809;28;20056;-68
2022/03/24 07:40:09;;;;;;;8.45;5.57;;;19.30;56.10;;;;;;5032959;28;20112;-68
2022/03/24 07:42:36;;;;;;;8.73;5.38;;;19.30;56.00;;;;;;5033643;28;20041;-65
2022/03/24 07:45:02;;;;;;;10.90;5.57;;;19.30;56.10;;;;;;5035281;28;20049;-67
2022/03/24 07:47:28;;;;;;;10.30;6.25;;;19.30;56.00;;;;;;5035662;28;20060;-68
2022/03/24 07:49:53;;;;;;;10.48;5.70;;;19.30;55.90;;;;;;5035724;28;20460;-69
2022/03/24 07:52:19;;;;;;;9.15;7.07;;;19.30;55.80;;;;;;5034357;28;20026;-69
2022/03/24 07:54:56;;;;;;;11.45;6.63;;;19.30;55.80;;;;;;5035034;28;20033;-69
2022/03/24 07:57:26;;;;;;;13.05;6.60;;;19.30;55.60;;;;;;5035431;28;20109;-70
2022/03/24 07:59:52;;;;;;;12.30;6.40;;;19.20;55.60;;;;;;5017670;28;20104;-69
2022/03/24 08:02:17;;;;;;;12.38;6.72;;;19.20;55.60;;;;;;5017441;28;20404;-68
2022/03/24 08:04:44;;;;;;;9.77;6.00;;;19.20;55.60;;;;;;5035224;28;20440;-68
2022/03/24 08:07:09;;;;;;;12.38;6.75;;;19.20;55.50;;;;;;5034101;28;20365;-68
2022/03/24 08:09:35;;;;;;;9.63;6.32;;;19.20;55.50;;;;;;5033777;28;20040;-68
2022/03/24 08:12:01;;;;;;;14.60;6.68;;;19.20;55.50;;;;;;5034270;28;20030;-69
2022/03/24 08:14:27;;;;;;;11.68;6.70;;;19.20;55.40;;;;;;5035077;28;20568;-68
2022/03/24 08:16:52;;;;;;;7.32;5.80;;;19.20;55.40;;;;;;5033510;28;20025;-68
2022/03/24 08:19:18;;;;;;;10.77;6.22;;;19.20;55.40;;;;;;5034659;28;20032;-67
2022/03/24 08:21:43;;;;;;;6.75;5.70;;;19.20;56.30;;;;;;5034792;28;20029;-68
2022/03/24 08:24:10;;;;;;;9.32;6.03;;;19.20;55.30;;;;;;5034651;28;20029;-68
2022/03/24 08:26:37;;;;;;;7.85;5.90;;;19.20;55.20;;;;;;5034687;28;20030;-67
2022/03/24 08:29:03;;;;;;;8.38;5.82;;;19.20;55.20;;;;;;5034474;28;20566;-68
2022/03/24 08:31:29;;;;;;;11.05;5.85;;;19.20;55.10;;;;;;5034804;28;20064;-69
2022/03/24 08:33:55;;;;;;;9.70;5.95;;;19.20;55.10;;;;;;5033193;28;20025;-68
2022/03/24 08:36:21;;;;;;;9.65;5.70;;;19.20;55.00;;;;;;5034579;28;20032;-69
2022/03/24 08:38:47;;;;;;;10.13;5.25;;;19.20;56.00;;;;;;5033287;28;20029;-68
2022/03/24 08:41:12;;;;;;;6.18;5.30;;;19.20;55.00;;;;;;5032744;28;20017;-68
2022/03/24 08:43:38;;;;;;;8.45;5.53;;;19.20;55.00;;;;;;5034548;28;20116;-68
2022/03/24 08:46:06;;;;;;;10.18;5.20;;;19.20;55.00;;;;;;5034474;28;20546;-68
2022/03/24 08:48:32;;;;;;;9.30;5.30;;;19.20;55.00;;;;;;5032947;28;20025;-68
2022/03/24 08:50:58;;;;;;;5.97;5.35;;;19.20;55.00;;;;;;5034425;28;20072;-69
2022/03/24 08:53:23;;;;;;;6.70;5.15;;;19.20;55.00;;;;;;5029393;28;20025;-68
2022/03/24 08:55:49;;;;;;;6.20;4.45;;;19.20;55.00;;;;;;5033917;28;20057;-68
2022/03/24 08:58:18;;;;;;;7.53;5.03;;;19.20;55.10;;;;;;5032311;28;20136;-68
2022/03/24 09:00:47;;;;;;;7.38;4.75;;;19.20;55.00;;;;;;5032565;28;20027;-68
2022/03/24 09:03:13;;;;;;;5.35;4.82;;;19.20;55.00;;;;;;5033935;28;20097;-67
2022/03/24 09:05:39;;;;;;;6.90;4.75;;;19.20;55.00;;;;;;5034084;28;20080;-68
2022/03/24 09:08:04;;;;;;;7.13;4.95;;;19.20;55.00;;;;;;5032489;28;20025;-68
2022/03/24 09:10:30;;;;;;;7.38;4.18;;;19.20;55.00;;;;;;5032394;28;20044;-67
2022/03/24 09:12:56;;;;;;;6.35;4.70;;;19.20;56.00;;;;;;5016205;28;20067;-70
2022/03/24 09:15:22;;;;;;;15.52;9.93;;;19.20;54.80;;;;;;5016221;28;20108;-68
2022/03/24 09:17:47;;;;;;;15.73;11.65;;;19.20;54.30;;;;;;5032672;28;20032;-68
2022/03/24 09:20:16;;;;;;;20.52;14.32;;;19.10;54.00;;;;;;5032117;28;20026;-68
2022/03/24 09:22:43;;;;;;;18.17;12.95;;;19.00;53.90;;;;;;5032722;28;20021;-68
2022/03/24 09:25:09;;;;;;;16.73;13.73;;;19.00;54.00;;;;;;5031959;28;20013;-68
2022/03/24 09:27:35;;;;;;;17.08;15.05;;;19.00;54.00;;;;;;5015924;28;20526;-67
2022/03/24 09:30:02;;;;;;;23.05;15.23;;;18.90;53.80;;;;;;5032386;28;20037;-67
2022/03/24 09:32:28;;;;;;;20.00;15.13;;;18.90;53.90;;;;;;5033353;28;20048;-67
2022/03/24 09:34:54;;;;;;;21.20;16.40;;;18.80;53.80;;;;;;5033302;28;20515;-67
2022/03/24 09:37:22;;;;;;;20.98;16.80;;;18.80;53.70;;;;;;5033621;28;20029;-67
2022/03/24 09:39:48;;;;;;;22.08;16.52;;;18.80;53.60;;;;;;5031903;28;20033;-67
2022/03/24 09:42:13;;;;;;;22.33;16.17;;;18.70;53.60;;;;;;5031825;28;20046;-68
2022/03/24 09:44:41;;;;;;;24.30;16.35;;;18.70;53.50;;;;;;5033237;28;20028;-69
2022/03/24 09:47:08;;;;;;;23.25;17.35;;;18.70;53.50;;;;;;5031856;28;20021;-69
2022/03/24 09:49:34;;;;;;;22.75;16.25;;;18.70;53.50;;;;;;5032044;28;20037;-70
2022/03/24 09:52:00;;;;;;;22.85;18.50;;;18.70;53.50;;;;;;5031830;28;20029;-70
2022/03/24 09:54:25;;;;;;;25.73;17.50;;;18.60;53.30;;;;;;5032994;28;20034;-70
2022/03/24 09:56:51;;;;;;;26.48;17.92;;;18.60;53.40;;;;;;5032990;28;20088;-68
2022/03/24 09:59:16;;;;;;;24.13;17.48;;;18.50;53.20;;;;;;5032875;28;20025;-70
2022/03/24 10:01:42;;;;;;;21.85;16.98;;;18.60;53.20;;;;;;5040020;28;20025;-69
2022/03/24 10:04:14;;;;;;;24.60;17.02;;;18.60;53.30;;;;;;5045168;28;20017;-72
2022/03/24 10:06:56;;;;;;;26.23;15.57;;;18.60;53.30;;;;;;5033840;28;20009;-68
2022/03/24 10:09:44;;;;;;;27.38;16.77;;;18.60;53.40;;;;;;5032023;28;20032;-70
2022/03/24 10:12:40;;;;;;;19.05;12.55;;;18.60;53.10;;;;;;5014228;28;20049;-69
2022/03/24 10:15:07;;;;;;;18.73;11.77;;;18.60;53.50;;;;;;5029775;28;20477;-69
2022/03/24 10:17:34;;;;;;;15.50;12.38;;;18.70;53.80;;;;;;5031364;28;20109;-69
2022/03/24 10:20:03;;;;;;;19.98;14.52;;;18.70;53.80;;;;;;5031631;28;20033;-69
2022/03/24 10:22:28;;;;;;;22.40;15.95;;;18.80;53.20;;;;;;5032646;28;20022;-69
2022/03/24 10:24:54;;;;;;;20.55;15.93;;;18.80;53.40;;;;;;5031246;28;20052;-69
2022/03/24 10:27:27;;;;;;;22.75;17.15;;;18.80;53.40;;;;;;5031441;28;20093;-68
2022/03/24 10:29:57;;;;;;;25.30;17.25;;;18.90;53.20;;;;;;5031406;28;20036;-68
2022/03/24 10:32:30;;;;;;;24.27;17.50;;;18.90;53.10;;;;;;5031486;28;20049;-68
2022/03/24 10:34:58;;;;;;;23.20;16.80;;;18.90;52.80;;;;;;5031835;28;20059;-68
2022/03/24 10:37:25;;;;;;;23.42;16.55;;;18.90;53.10;;;;;;5048332;28;20026;-67
2022/03/24 10:40:10;;;;;;;19.40;16.42;;;18.90;53.10;;;;;;5031532;28;20044;-67
2022/03/24 10:42:37;;;;;;;22.90;16.92;;;18.90;52.80;;;;;;5031349;28;20041;-67
2022/03/24 10:45:17;;;;;;;23.90;17.77;;;18.90;52.80;;;;;;5031069;28;20476;-68
2022/03/24 10:47:42;;;;;;;23.23;18.23;;;18.90;52.10;;;;;;5032546;28;20080;-68
2022/03/24 10:50:26;;;;;;;25.42;17.15;;;18.90;52.60;;;;;;5032582;28;20385;-68
2022/03/24 10:52:53;;;;;;;20.88;16.20;;;18.90;52.20;;;;;;5032384;28;20479;-68
2022/03/24 10:55:52;;;;;;;21.58;16.65;;;18.90;52.60;;;;;;5032516;28;20053;-67
2022/03/24 10:58:31;;;;;;;22.45;15.88;;;19.00;51.90;;;;;;5031587;28;20112;-67
2022/03/24 11:01:07;;;;;;;21.42;15.25;;;19.00;52.50;;;;;;5032317;28;20046;-68
2022/03/24 11:03:33;;;;;;;20.25;15.07;;;19.00;52.20;;;;;;5047631;28;20499;-68
2022/03/24 11:06:12;;;;;;;26.17;17.08;;;19.00;52.40;;;;;;5031037;28;20048;-68
2022/03/24 11:08:38;;;;;;;24.15;16.60;;;19.00;52.10;;;;;;5032399;28;20025;-67
2022/03/24 11:11:09;;;;;;;20.48;16.90;;;19.00;51.90;;;;;;5031113;28;20064;-68
2022/03/24 11:13:51;;;;;;;23.35;16.70;;;19.00;51.90;;;;;;5036153;28;20080;-68
2022/03/24 11:16:18;;;;;;;19.33;16.27;;;19.10;51.70;;;;;;5034786;28;20031;-68
2022/03/24 11:18:44;;;;;;;20.02;16.50;;;19.00;52.20;;;;;;5035895;28;20061;-68
2022/03/24 11:21:33;;;;;;;19.50;15.40;;;19.10;52.30;;;;;;5035649;28;20025;-68
2022/03/24 11:23:59;;;;;;;20.65;16.45;;;19.20;51.90;;;;;;5036087;28;20478;-68
2022/03/24 11:26:25;;;;;;;24.63;16.77;;;19.10;52.00;;;;;;5035705;28;20133;-68
2022/03/24 11:28:53;;;;;;;21.73;16.48;;;19.10;51.60;;;;;;5034516;28;20050;-66
2022/03/24 11:31:19;;;;;;;21.45;16.83;;;19.10;52.00;;;;;;5035553;28;20033;-67
2022/03/24 11:33:47;;;;;;;23.73;17.00;;;19.10;51.10;;;;;;5035723;28;20029;-68
2022/03/24 11:36:13;;;;;;;23.23;17.08;;;19.10;51.10;;;;;;5034118;28;20026;-68
2022/03/24 11:38:39;;;;;;;21.33;17.25;;;19.10;51.70;;;;;;5035532;28;20018;-67
2022/03/24 11:41:26;;;;;;;24.95;16.63;;;19.20;51.80;;;;;;5035518;28;20029;-67
2022/03/24 11:43:53;;;;;;;20.33;16.55;;;19.20;51.30;;;;;;5067638;28;20037;-67
2022/03/24 11:46:30;;;;;;;25.10;18.25;;;19.20;51.70;;;;;;5034052;28;20068;-67
2022/03/24 11:49:16;;;;;;;26.63;18.48;;;19.20;50.90;;;;;;5035318;28;20040;-67
2022/03/24 11:51:44;;;;;;;23.38;16.95;;;19.20;51.40;;;;;;5034887;28;20025;-67
2022/03/24 11:54:09;;;;;;;21.05;16.42;;;19.20;51.80;;;;;;5034182;28;20037;-67
2022/03/24 11:56:35;;;;;;;21.00;16.40;;;19.20;51.80;;;;;;5034277;28;20106;-67
2022/03/24 11:59:01;;;;;;;20.02;15.73;;;19.30;51.90;;;;;;5035227;28;20037;-67
2022/03/24 12:01:32;;;;;;;22.02;16.75;;;19.30;51.90;;;;;;5035324;28;20017;-67
2022/03/24 12:04:10;;;;;;;22.00;16.80;;;19.40;51.70;;;;;;5025009;28;20055;-67
2022/03/24 12:06:56;;;;;;;20.30;16.17;;;19.40;51.70;;;;;;5015325;28;20514;-67
2022/03/24 12:09:25;;;;;;;21.17;17.25;;;19.50;51.80;;;;;;5047246;28;20650;-68
2022/03/24 12:11:53;;;;;;;23.92;17.95;;;19.50;52.00;;;;;;5015432;28;20030;-67
2022/03/24 12:14:45;;;;;;;23.65;16.08;;;19.50;51.80;;;;;;5014325;28;20030;-67
2022/03/24 12:17:15;;;;;;;21.70;15.70;;;19.60;51.70;;;;;;5015471;28;20038;-68
2022/03/24 12:19:47;;;;;;;19.70;15.65;;;19.60;51.40;;;;;;5013858;28;20033;-67
2022/03/24 12:22:25;;;;;;;21.55;15.23;;;19.60;51.40;;;;;;5013754;28;20025;-68
2022/03/24 12:24:59;;;;;;;24.52;16.73;;;19.60;51.10;;;;;;5015284;28;20429;-68
2022/03/24 12:27:32;;;;;;;19.13;14.45;;;19.60;51.00;;;;;;5015152;28;20108;-68
2022/03/24 12:30:11;;;;;;;18.65;14.43;;;19.60;50.60;;;;;;5013621;28;20400;-67
2022/03/24 12:32:37;;;;;;;19.75;14.93;;;19.60;50.60;;;;;;5015162;28;20022;-68
2022/03/24 12:35:03;;;;;;;20.52;15.25;;;19.60;50.80;;;;;;5013647;28;20038;-68
2022/03/24 12:37:32;;;;;;;21.77;15.07;;;19.60;49.30;;;;;;5015123;28;20084;-66
2022/03/24 12:40:10;;;;;;;18.42;14.13;;;19.60;50.50;;;;;;5015016;28;20025;-69
2022/03/24 12:42:47;;;;;;;16.52;13.73;;;19.60;50.60;;;;;;5014506;28;20463;-68
2022/03/24 12:45:25;;;;;;;16.70;11.55;;;19.70;50.60;;;;;;5027059;28;20021;-68